sensor_id;sensor_type;location;lat;lon;timestamp;pressure;altitude;pressure_sealevel;temperature;humidity
51081;BME280;37130;55.670;37.596;2023-09-30T00:00:30;99873.50;;;12.87;81.46
51081;BME280;37130;55.670;37.596;2023-09-30T00:03:00;99829.97;;;12.55;81.01
51081;BME280;37130;55.670;37.596;2023-09-30T00:05:27;99842.03;;;12.62;81.19
51081;BME280;37130;55.670;37.596;2023-09-30T00:07:55;99879.91;;;12.83;81.46
51081;BME280;37130;55.670;37.596;2023-09-30T00:10:22;99874.59;;;12.83;81.77
51081;BME280;37130;55.670;37.596;2023-09-30T00:12:49;99876.47;;;12.81;81.85
51081;BME280;37130;55.670;37.596;2023-09-30T00:15:17;99855.94;;;12.67;81.80
51081;BME280;37130;55.670;37.596;2023-09-30T00:17:44;99878.50;;;12.76;81.90
51081;BME280;37130;55.670;37.596;2023-09-30T00:20:12;99820.09;;;12.41;82.12
51081;BME280;37130;55.670;37.596;2023-09-30T00:22:42;99866.38;;;12.70;82.01
51081;BME280;37130;55.670;37.596;2023-09-30T00:25:09;99863.72;;;12.70;82.21
51081;BME280;37130;55.670;37.596;2023-09-30T00:27:40;99871.81;;;12.68;82.14
51081;BME280;37130;55.670;37.596;2023-09-30T00:30:07;99863.13;;;12.65;82.49
51081;BME280;37130;55.670;37.596;2023-09-30T00:32:35;99845.31;;;12.49;82.79
51081;BME280;37130;55.670;37.596;2023-09-30T00:35:03;99851.34;;;12.53;82.53
51081;BME280;37130;55.670;37.596;2023-09-30T00:37:31;99853.91;;;12.55;82.82
51081;BME280;37130;55.670;37.596;2023-09-30T00:39:59;99867.13;;;12.56;82.55
51081;BME280;37130;55.670;37.596;2023-09-30T00:42:26;99861.00;;;12.54;82.51
51081;BME280;37130;55.670;37.596;2023-09-30T00:44:55;99827.03;;;12.26;83.14
51081;BME280;37130;55.670;37.596;2023-09-30T00:47:23;99757.16;;;11.91;82.91
51081;BME280;37130;55.670;37.596;2023-09-30T00:49:51;99861.97;;;12.53;82.96
51081;BME280;37130;55.670;37.596;2023-09-30T00:52:20;99862.97;;;12.50;82.91
51081;BME280;37130;55.670;37.596;2023-09-30T00:54:49;99853.38;;;12.48;83.30
51081;BME280;37130;55.670;37.596;2023-09-30T00:57:19;99847.38;;;12.44;83.42
51081;BME280;37130;55.670;37.596;2023-09-30T00:59:48;99790.72;;;12.09;83.14
51081;BME280;37130;55.670;37.596;2023-09-30T01:02:20;99823.69;;;12.22;83.21
51081;BME280;37130;55.670;37.596;2023-09-30T01:04:50;99840.94;;;12.31;83.20
51081;BME280;37130;55.670;37.596;2023-09-30T01:07:17;99849.41;;;12.39;83.50
51081;BME280;37130;55.670;37.596;2023-09-30T01:09:45;99846.13;;;12.34;83.94
51081;BME280;37130;55.670;37.596;2023-09-30T01:12:13;99852.50;;;12.30;83.82
51081;BME280;37130;55.670;37.596;2023-09-30T01:14:40;99848.22;;;12.27;83.96
51081;BME280;37130;55.670;37.596;2023-09-30T01:17:09;99846.56;;;12.25;83.93
51081;BME280;37130;55.670;37.596;2023-09-30T01:19:40;99843.13;;;12.23;84.14
51081;BME280;37130;55.670;37.596;2023-09-30T01:22:10;99846.78;;;12.20;84.01
51081;BME280;37130;55.670;37.596;2023-09-30T01:24:39;99850.41;;;12.19;84.20
51081;BME280;37130;55.670;37.596;2023-09-30T01:27:08;99854.00;;;12.18;84.47
51081;BME280;37130;55.670;37.596;2023-09-30T01:29:37;99848.75;;;12.17;84.10
51081;BME280;37130;55.670;37.596;2023-09-30T01:32:07;99842.66;;;12.15;84.03
51081;BME280;37130;55.670;37.596;2023-09-30T01:34:37;99846.41;;;12.11;84.41
51081;BME280;37130;55.670;37.596;2023-09-30T01:37:04;99835.06;;;12.07;84.59
51081;BME280;37130;55.670;37.596;2023-09-30T01:39:32;99845.78;;;12.05;84.85
51081;BME280;37130;55.670;37.596;2023-09-30T01:42:01;99845.00;;;12.03;84.78
51081;BME280;37130;55.670;37.596;2023-09-30T01:44:32;99848.66;;;12.01;84.85
51081;BME280;37130;55.670;37.596;2023-09-30T01:46:59;99831.09;;;11.98;85.09
51081;BME280;37130;55.670;37.596;2023-09-30T01:49:27;99748.94;;;11.41;84.57
51081;BME280;37130;55.670;37.596;2023-09-30T01:51:55;99772.38;;;11.51;85.00
51081;BME280;37130;55.670;37.596;2023-09-30T01:54:25;99803.16;;;11.72;85.10
51081;BME280;37130;55.670;37.596;2023-09-30T01:56:52;99842.72;;;11.96;84.99
51081;BME280;37130;55.670;37.596;2023-09-30T01:59:21;99807.59;;;11.72;84.81
51081;BME280;37130;55.670;37.596;2023-09-30T02:01:49;99843.78;;;11.92;85.39
51081;BME280;37130;55.670;37.596;2023-09-30T02:04:16;99831.00;;;11.81;85.26
51081;BME280;37130;55.670;37.596;2023-09-30T02:06:44;99783.78;;;11.53;85.06
51081;BME280;37130;55.670;37.596;2023-09-30T02:09:12;99847.53;;;11.88;85.14
51081;BME280;37130;55.670;37.596;2023-09-30T02:11:40;99836.16;;;11.84;85.02
51081;BME280;37130;55.670;37.596;2023-09-30T02:14:10;99837.06;;;11.84;85.17
51081;BME280;37130;55.670;37.596;2023-09-30T02:16:40;99836.31;;;11.81;85.25
51081;BME280;37130;55.670;37.596;2023-09-30T02:19:08;99837.34;;;11.78;85.65
51081;BME280;37130;55.670;37.596;2023-09-30T02:21:38;99836.47;;;11.78;85.27
51081;BME280;37130;55.670;37.596;2023-09-30T02:24:06;99838.34;;;11.76;85.30
51081;BME280;37130;55.670;37.596;2023-09-30T02:26:35;99835.69;;;11.76;85.57
51081;BME280;37130;55.670;37.596;2023-09-30T02:29:02;99842.94;;;11.72;85.66
51081;BME280;37130;55.670;37.596;2023-09-30T02:31:30;99831.47;;;11.72;85.89
51081;BME280;37130;55.670;37.596;2023-09-30T02:33:58;99808.25;;;11.58;85.46
51081;BME280;37130;55.670;37.596;2023-09-30T02:36:26;99831.63;;;11.69;85.91
51081;BME280;37130;55.670;37.596;2023-09-30T02:38:54;99830.75;;;11.68;85.89
51081;BME280;37130;55.670;37.596;2023-09-30T02:41:22;99828.19;;;11.67;85.91
51081;BME280;37130;55.670;37.596;2023-09-30T02:43:49;99815.84;;;11.66;85.99
51081;BME280;37130;55.670;37.596;2023-09-30T02:46:17;99769.81;;;11.30;86.05
51081;BME280;37130;55.670;37.596;2023-09-30T02:48:46;99770.66;;;11.31;86.31
51081;BME280;37130;55.670;37.596;2023-09-30T02:51:13;99818.75;;;11.61;86.74
51081;BME280;37130;55.670;37.596;2023-09-30T02:53:42;99749.28;;;11.16;86.04
51081;BME280;37130;55.670;37.596;2023-09-30T02:56:09;99811.84;;;11.57;86.54
51081;BME280;37130;55.670;37.596;2023-09-30T02:58:38;99812.78;;;11.56;86.34
51081;BME280;37130;55.670;37.596;2023-09-30T03:01:07;99800.69;;;11.50;86.10
51081;BME280;37130;55.670;37.596;2023-09-30T03:03:39;99807.84;;;11.48;86.92
51081;BME280;37130;55.670;37.596;2023-09-30T03:06:07;99812.16;;;11.51;87.12
51081;BME280;37130;55.670;37.596;2023-09-30T03:08:34;99810.34;;;11.51;86.74
51081;BME280;37130;55.670;37.596;2023-09-30T03:11:02;99812.06;;;11.52;86.80
51081;BME280;37130;55.670;37.596;2023-09-30T03:13:31;99799.16;;;11.45;86.97
51081;BME280;37130;55.670;37.596;2023-09-30T03:15:58;99814.88;;;11.49;86.59
51081;BME280;37130;55.670;37.596;2023-09-30T03:18:26;99808.66;;;11.50;86.98
51081;BME280;37130;55.670;37.596;2023-09-30T03:20:59;99808.72;;;11.49;86.78
51081;BME280;37130;55.670;37.596;2023-09-30T03:23:27;99806.38;;;11.43;86.68
51081;BME280;37130;55.670;37.596;2023-09-30T03:25:58;99759.88;;;11.16;87.14
51081;BME280;37130;55.670;37.596;2023-09-30T03:28:26;99804.25;;;11.49;86.90
51081;BME280;37130;55.670;37.596;2023-09-30T03:30:54;99792.16;;;11.44;86.77
51081;BME280;37130;55.670;37.596;2023-09-30T03:33:22;99805.91;;;11.52;86.92
51081;BME280;37130;55.670;37.596;2023-09-30T03:35:50;99794.38;;;11.53;87.18
51081;BME280;37130;55.670;37.596;2023-09-30T03:38:18;99809.13;;;11.58;87.24
51081;BME280;37130;55.670;37.596;2023-09-30T03:40:47;99804.53;;;11.62;86.57
51081;BME280;37130;55.670;37.596;2023-09-30T03:43:16;99792.28;;;11.59;86.66
51081;BME280;37130;55.670;37.596;2023-09-30T03:45:44;99775.81;;;11.53;86.29
51081;BME280;37130;55.670;37.596;2023-09-30T03:48:12;99809.78;;;11.81;86.17
51081;BME280;37130;55.670;37.596;2023-09-30T03:50:40;99804.06;;;11.90;86.12
51081;BME280;37130;55.670;37.596;2023-09-30T03:53:07;99797.44;;;11.99;86.26
51081;BME280;37130;55.670;37.596;2023-09-30T03:55:35;99694.09;;;11.42;85.86
51081;BME280;37130;55.670;37.596;2023-09-30T03:58:04;99794.69;;;12.18;85.51
51081;BME280;37130;55.670;37.596;2023-09-30T04:00:31;99768.47;;;12.12;85.31
51081;BME280;37130;55.670;37.596;2023-09-30T04:02:58;99799.28;;;12.49;85.30
51081;BME280;37130;55.670;37.596;2023-09-30T04:05:26;99816.22;;;12.64;84.48
51081;BME280;37130;55.670;37.596;2023-09-30T04:07:57;99800.56;;;12.75;84.18
51081;BME280;37130;55.670;37.596;2023-09-30T04:10:24;99798.13;;;12.88;83.81
51081;BME280;37130;55.670;37.596;2023-09-30T04:12:52;99804.47;;;13.01;83.61
51081;BME280;37130;55.670;37.596;2023-09-30T04:15:19;99800.91;;;13.18;82.85
51081;BME280;37130;55.670;37.596;2023-09-30T04:17:48;99805.31;;;13.35;82.20
51081;BME280;37130;55.670;37.596;2023-09-30T04:20:16;99806.09;;;13.53;82.09
51081;BME280;37130;55.670;37.596;2023-09-30T04:22:49;99806.59;;;13.75;81.61
51081;BME280;37130;55.670;37.596;2023-09-30T04:25:17;99799.78;;;14.16;80.26
51081;BME280;37130;55.670;37.596;2023-09-30T04:27:46;99805.97;;;14.46;79.23
51081;BME280;37130;55.670;37.596;2023-09-30T04:30:17;99764.91;;;14.35;78.52
51081;BME280;37130;55.670;37.596;2023-09-30T04:32:45;99804.31;;;14.88;77.39
51081;BME280;37130;55.670;37.596;2023-09-30T04:35:13;99803.97;;;15.22;76.13
51081;BME280;37130;55.670;37.596;2023-09-30T04:37:42;99795.56;;;15.42;75.61
51081;BME280;37130;55.670;37.596;2023-09-30T04:40:10;99807.44;;;15.51;74.96
51081;BME280;37130;55.670;37.596;2023-09-30T04:42:48;99803.56;;;15.56;74.32
51081;BME280;37130;55.670;37.596;2023-09-30T04:45:17;99774.22;;;15.42;74.13
51081;BME280;37130;55.670;37.596;2023-09-30T04:47:48;99800.78;;;15.72;74.11
51081;BME280;37130;55.670;37.596;2023-09-30T04:50:18;99806.81;;;15.89;73.29
51081;BME280;37130;55.670;37.596;2023-09-30T04:52:53;99710.38;;;15.39;72.62
51081;BME280;37130;55.670;37.596;2023-09-30T04:55:20;99804.44;;;16.11;72.36
51081;BME280;37130;55.670;37.596;2023-09-30T04:57:48;99812.03;;;16.30;71.90
51081;BME280;37130;55.670;37.596;2023-09-30T05:00:18;99795.28;;;16.41;70.90
51081;BME280;37130;55.670;37.596;2023-09-30T05:02:46;99817.09;;;16.73;70.24
51081;BME280;37130;55.670;37.596;2023-09-30T05:05:14;99812.75;;;16.85;69.67
51081;BME280;37130;55.670;37.596;2023-09-30T05:07:43;99802.47;;;16.92;69.61
51081;BME280;37130;55.670;37.596;2023-09-30T05:10:11;99792.41;;;16.95;68.99
51081;BME280;37130;55.670;37.596;2023-09-30T05:12:43;99813.78;;;17.21;68.08
51081;BME280;37130;55.670;37.596;2023-09-30T05:15:15;99810.44;;;17.30;67.80
51081;BME280;37130;55.670;37.596;2023-09-30T05:17:48;99814.28;;;17.39;67.33
51081;BME280;37130;55.670;37.596;2023-09-30T05:20:16;99762.81;;;17.22;67.59
51081;BME280;37130;55.670;37.596;2023-09-30T05:22:47;99792.34;;;17.58;66.99
51081;BME280;37130;55.670;37.596;2023-09-30T05:25:16;99805.91;;;17.80;66.34
51081;BME280;37130;55.670;37.596;2023-09-30T05:27:46;99801.31;;;18.17;65.87
51081;BME280;37130;55.670;37.596;2023-09-30T05:30:17;99799.22;;;18.68;64.30
51081;BME280;37130;55.670;37.596;2023-09-30T05:32:45;99792.81;;;19.38;62.94
51081;BME280;37130;55.670;37.596;2023-09-30T05:35:14;99747.59;;;20.91;58.55
51081;BME280;37130;55.670;37.596;2023-09-30T05:37:46;99787.69;;;23.10;54.41
51081;BME280;37130;55.670;37.596;2023-09-30T05:40:13;99801.03;;;25.34;50.23
51081;BME280;37130;55.670;37.596;2023-09-30T05:42:48;99805.91;;;27.60;46.04
51081;BME280;37130;55.670;37.596;2023-09-30T05:45:17;99806.09;;;29.26;42.86
51081;BME280;37130;55.670;37.596;2023-09-30T05:47:44;99819.81;;;29.99;41.78
51081;BME280;37130;55.670;37.596;2023-09-30T05:50:15;99804.28;;;30.21;40.61
51081;BME280;37130;55.670;37.596;2023-09-30T05:52:43;99760.88;;;30.83;39.60
51081;BME280;37130;55.670;37.596;2023-09-30T05:55:11;99801.69;;;32.28;37.40
51081;BME280;37130;55.670;37.596;2023-09-30T05:57:39;99754.19;;;32.94;35.52
51081;BME280;37130;55.670;37.596;2023-09-30T06:00:10;99788.63;;;33.62;34.19
51081;BME280;37130;55.670;37.596;2023-09-30T06:02:42;99804.25;;;34.07;34.12
51081;BME280;37130;55.670;37.596;2023-09-30T06:05:10;99733.91;;;34.24;32.67
51081;BME280;37130;55.670;37.596;2023-09-30T06:07:38;99798.72;;;35.32;31.06
51081;BME280;37130;55.670;37.596;2023-09-30T06:10:06;99802.94;;;35.83;30.41
51081;BME280;37130;55.670;37.596;2023-09-30T06:12:33;99795.47;;;36.32;29.91
51081;BME280;37130;55.670;37.596;2023-09-30T06:15:01;99799.19;;;36.50;29.20
51081;BME280;37130;55.670;37.596;2023-09-30T06:17:31;99773.22;;;36.69;28.64
51081;BME280;37130;55.670;37.596;2023-09-30T06:20:00;99799.59;;;37.00;28.28
51081;BME280;37130;55.670;37.596;2023-09-30T06:22:35;99800.94;;;36.74;28.22
51081;BME280;37130;55.670;37.596;2023-09-30T06:25:03;99796.72;;;36.72;27.69
51081;BME280;37130;55.670;37.596;2023-09-30T06:27:31;99767.81;;;36.74;27.81
51081;BME280;37130;55.670;37.596;2023-09-30T06:29:58;99793.25;;;37.23;27.08
51081;BME280;37130;55.670;37.596;2023-09-30T06:32:26;99791.75;;;37.44;26.79
51081;BME280;37130;55.670;37.596;2023-09-30T06:34:54;99747.75;;;37.43;26.84
51081;BME280;37130;55.670;37.596;2023-09-30T06:37:21;99787.88;;;37.86;25.77
51081;BME280;37130;55.670;37.596;2023-09-30T06:39:49;99788.53;;;38.22;25.43
51081;BME280;37130;55.670;37.596;2023-09-30T06:42:16;99785.16;;;38.48;25.48
51081;BME280;37130;55.670;37.596;2023-09-30T06:44:44;99794.13;;;38.89;24.61
51081;BME280;37130;55.670;37.596;2023-09-30T06:47:12;99772.31;;;39.15;24.68
51081;BME280;37130;55.670;37.596;2023-09-30T06:49:39;99749.50;;;39.08;24.34
51081;BME280;37130;55.670;37.596;2023-09-30T06:52:06;99752.78;;;39.05;24.03
51081;BME280;37130;55.670;37.596;2023-09-30T06:54:34;99777.91;;;39.64;23.51
51081;BME280;37130;55.670;37.596;2023-09-30T06:57:02;99781.47;;;39.81;23.46
51081;BME280;37130;55.670;37.596;2023-09-30T06:59:29;99754.66;;;39.92;23.05
51081;BME280;37130;55.670;37.596;2023-09-30T07:01:57;99780.53;;;40.62;22.26
51081;BME280;37130;55.670;37.596;2023-09-30T07:04:24;99777.25;;;40.65;22.25
51081;BME280;37130;55.670;37.596;2023-09-30T07:06:53;99781.97;;;40.65;22.00
51081;BME280;37130;55.670;37.596;2023-09-30T07:09:21;99788.56;;;40.59;22.12
51081;BME280;37130;55.670;37.596;2023-09-30T07:11:49;99773.81;;;40.58;22.21
51081;BME280;37130;55.670;37.596;2023-09-30T07:14:16;99770.56;;;40.66;21.99
51081;BME280;37130;55.670;37.596;2023-09-30T07:16:43;99777.72;;;40.94;21.80
51081;BME280;37130;55.670;37.596;2023-09-30T07:19:11;99783.28;;;41.00;21.46
51081;BME280;37130;55.670;37.596;2023-09-30T07:21:39;99765.34;;;41.12;21.45
51081;BME280;37130;55.670;37.596;2023-09-30T07:24:06;99767.53;;;41.10;21.33
51081;BME280;37130;55.670;37.596;2023-09-30T07:26:34;99771.63;;;41.03;21.01
51081;BME280;37130;55.670;37.596;2023-09-30T07:29:01;99764.78;;;41.15;20.75
51081;BME280;37130;55.670;37.596;2023-09-30T07:31:35;99751.69;;;41.11;21.10
51081;BME280;37130;55.670;37.596;2023-09-30T07:34:03;99770.00;;;41.70;20.44
51081;BME280;37130;55.670;37.596;2023-09-30T07:36:30;99760.16;;;41.42;20.33
51081;BME280;37130;55.670;37.596;2023-09-30T07:38:58;99769.31;;;41.42;20.61
51081;BME280;37130;55.670;37.596;2023-09-30T07:41:34;99754.88;;;41.40;20.37
51081;BME280;37130;55.670;37.596;2023-09-30T07:44:02;99761.00;;;41.42;20.48
51081;BME280;37130;55.670;37.596;2023-09-30T07:46:30;99757.75;;;41.66;20.43
51081;BME280;37130;55.670;37.596;2023-09-30T07:48:57;99758.59;;;41.76;19.70
51081;BME280;37130;55.670;37.596;2023-09-30T07:51:26;99766.69;;;41.83;19.92
51081;BME280;37130;55.670;37.596;2023-09-30T07:53:54;99767.25;;;41.75;19.78
51081;BME280;37130;55.670;37.596;2023-09-30T07:56:21;99736.63;;;41.70;19.78
51081;BME280;37130;55.670;37.596;2023-09-30T07:58:49;99713.22;;;41.55;19.83
51081;BME280;37130;55.670;37.596;2023-09-30T08:01:16;99757.47;;;41.62;19.34
51081;BME280;37130;55.670;37.596;2023-09-30T08:03:45;99745.78;;;41.02;19.58
51081;BME280;37130;55.670;37.596;2023-09-30T08:06:12;99713.69;;;40.31;20.12
51081;BME280;37130;55.670;37.596;2023-09-30T08:08:40;99743.78;;;39.63;20.25
51081;BME280;37130;55.670;37.596;2023-09-30T08:11:07;99743.94;;;38.35;21.52
51081;BME280;37130;55.670;37.596;2023-09-30T08:13:35;99740.91;;;36.34;22.94
51081;BME280;37130;55.670;37.596;2023-09-30T08:16:02;99730.78;;;34.45;25.06
51081;BME280;37130;55.670;37.596;2023-09-30T08:18:30;99672.59;;;32.57;27.54
51081;BME280;37130;55.670;37.596;2023-09-30T08:20:57;99717.50;;;31.89;28.82
51081;BME280;37130;55.670;37.596;2023-09-30T08:23:25;99721.31;;;31.27;30.07
51081;BME280;37130;55.670;37.596;2023-09-30T08:25:53;99717.25;;;31.09;30.35
51081;BME280;37130;55.670;37.596;2023-09-30T08:28:21;99715.31;;;31.51;29.72
51081;BME280;37130;55.670;37.596;2023-09-30T08:30:49;99709.50;;;32.41;28.93
51081;BME280;37130;55.670;37.596;2023-09-30T08:33:18;99706.44;;;33.09;28.12
51081;BME280;37130;55.670;37.596;2023-09-30T08:35:46;99706.03;;;33.57;27.56
51081;BME280;37130;55.670;37.596;2023-09-30T08:38:17;99707.78;;;34.15;26.97
51081;BME280;37130;55.670;37.596;2023-09-30T08:40:45;99713.81;;;34.48;26.00
51081;BME280;37130;55.670;37.596;2023-09-30T08:43:19;99673.31;;;34.12;26.06
51081;BME280;37130;55.670;37.596;2023-09-30T08:45:53;99697.88;;;34.07;26.20
51081;BME280;37130;55.670;37.596;2023-09-30T08:48:22;99711.28;;;33.90;26.73
51081;BME280;37130;55.670;37.596;2023-09-30T08:50:51;99704.38;;;33.43;26.82
51081;BME280;37130;55.670;37.596;2023-09-30T08:53:20;99603.06;;;32.11;27.91
51081;BME280;37130;55.670;37.596;2023-09-30T08:55:53;99697.25;;;31.77;28.45
51081;BME280;37130;55.670;37.596;2023-09-30T08:58:27;99690.06;;;31.01;29.47
51081;BME280;37130;55.670;37.596;2023-09-30T09:00:55;99689.19;;;30.31;30.98
51081;BME280;37130;55.670;37.596;2023-09-30T09:03:23;99650.63;;;29.69;31.22
51081;BME280;37130;55.670;37.596;2023-09-30T09:05:55;99691.19;;;29.73;31.40
51081;BME280;37130;55.670;37.596;2023-09-30T09:08:27;99684.06;;;29.57;31.55
51081;BME280;37130;55.670;37.596;2023-09-30T09:10:59;99669.03;;;29.24;31.73
51081;BME280;37130;55.670;37.596;2023-09-30T09:13:27;99641.16;;;28.78;31.76
51081;BME280;37130;55.670;37.596;2023-09-30T09:16:08;99674.97;;;28.39;32.39
51081;BME280;37130;55.670;37.596;2023-09-30T09:18:36;99626.63;;;27.42;33.48
51081;BME280;37130;55.670;37.596;2023-09-30T09:21:22;99675.25;;;27.06;34.60
51081;BME280;37130;55.670;37.596;2023-09-30T09:23:51;99664.88;;;26.78;34.48
51081;BME280;37130;55.670;37.596;2023-09-30T09:26:30;99671.41;;;26.44;35.06
51081;BME280;37130;55.670;37.596;2023-09-30T09:29:03;99662.78;;;26.24;35.35
51081;BME280;37130;55.670;37.596;2023-09-30T09:31:33;99656.19;;;26.11;35.61
51081;BME280;37130;55.670;37.596;2023-09-30T09:34:13;99667.06;;;25.94;36.37
51081;BME280;37130;55.670;37.596;2023-09-30T09:36:45;99648.03;;;25.78;36.84
51081;BME280;37130;55.670;37.596;2023-09-30T09:39:15;99659.78;;;25.95;36.81
51081;BME280;37130;55.670;37.596;2023-09-30T09:41:50;99649.38;;;26.07;36.99
51081;BME280;37130;55.670;37.596;2023-09-30T09:44:22;99654.16;;;26.05;36.58
51081;BME280;37130;55.670;37.596;2023-09-30T09:46:50;99655.16;;;26.04;37.09
51081;BME280;37130;55.670;37.596;2023-09-30T09:49:20;99659.75;;;26.11;36.72
51081;BME280;37130;55.670;37.596;2023-09-30T09:51:48;99646.53;;;26.08;36.64
51081;BME280;37130;55.670;37.596;2023-09-30T09:54:16;99637.50;;;25.83;36.55
51081;BME280;37130;55.670;37.596;2023-09-30T09:56:45;99655.53;;;26.00;37.26
51081;BME280;37130;55.670;37.596;2023-09-30T09:59:13;99643.97;;;25.98;36.85
51081;BME280;37130;55.670;37.596;2023-09-30T10:01:41;99600.88;;;25.30;36.98
51081;BME280;37130;55.670;37.596;2023-09-30T10:04:13;99655.81;;;25.32;36.98
51081;BME280;37130;55.670;37.596;2023-09-30T10:06:44;99644.59;;;25.19;36.58
51081;BME280;37130;55.670;37.596;2023-09-30T10:09:16;99647.38;;;24.92;37.38
51081;BME280;37130;55.670;37.596;2023-09-30T10:11:46;99653.88;;;24.65;37.51
51081;BME280;37130;55.670;37.596;2023-09-30T10:14:33;99647.03;;;24.53;38.17
51081;BME280;37130;55.670;37.596;2023-09-30T10:17:01;99596.44;;;24.27;37.64
51081;BME280;37130;55.670;37.596;2023-09-30T10:19:30;99643.50;;;24.53;37.52
51081;BME280;37130;55.670;37.596;2023-09-30T10:24:58;99632.91;;;24.76;36.96
51081;BME280;37130;55.670;37.596;2023-09-30T10:27:33;99634.84;;;24.57;37.35
51081;BME280;37130;55.670;37.596;2023-09-30T10:40:58;99617.16;;;24.11;38.27
51081;BME280;37130;55.670;37.596;2023-09-30T10:43:37;99605.69;;;24.17;38.21
51081;BME280;37130;55.670;37.596;2023-09-30T10:46:30;99622.84;;;24.34;38.95
51081;BME280;37130;55.670;37.596;2023-09-30T10:49:14;99618.78;;;24.30;38.34
51081;BME280;37130;55.670;37.596;2023-09-30T10:51:44;99619.13;;;23.74;38.96
51081;BME280;37130;55.670;37.596;2023-09-30T10:54:14;99558.00;;;23.46;39.12
51081;BME280;37130;55.670;37.596;2023-09-30T10:56:41;99603.88;;;23.73;39.74
51081;BME280;37130;55.670;37.596;2023-09-30T10:59:09;99565.94;;;23.47;40.32
51081;BME280;37130;55.670;37.596;2023-09-30T11:01:36;99604.25;;;23.60;39.81
51081;BME280;37130;55.670;37.596;2023-09-30T11:04:05;99585.75;;;23.48;40.41
51081;BME280;37130;55.670;37.596;2023-09-30T11:06:39;99593.69;;;23.49;39.68
51081;BME280;37130;55.670;37.596;2023-09-30T11:09:18;99585.97;;;23.36;39.83
51081;BME280;37130;55.670;37.596;2023-09-30T11:11:48;99522.84;;;23.02;40.12
51081;BME280;37130;55.670;37.596;2023-09-30T11:14:23;99590.66;;;23.52;40.25
51081;BME280;37130;55.670;37.596;2023-09-30T11:17:02;99580.72;;;23.53;40.17
51081;BME280;37130;55.670;37.596;2023-09-30T11:19:45;99585.66;;;23.39;40.88
51081;BME280;37130;55.670;37.596;2023-09-30T11:22:14;99564.59;;;23.25;40.74
51081;BME280;37130;55.670;37.596;2023-09-30T11:24:42;99549.84;;;23.19;40.80
51081;BME280;37130;55.670;37.596;2023-09-30T11:27:09;99582.66;;;23.43;41.15
51081;BME280;37130;55.670;37.596;2023-09-30T11:29:37;99528.31;;;23.10;40.58
51081;BME280;37130;55.670;37.596;2023-09-30T11:32:04;99579.78;;;23.26;40.98
51081;BME280;37130;55.670;37.596;2023-09-30T11:34:36;99567.22;;;23.35;41.01
51081;BME280;37130;55.670;37.596;2023-09-30T11:37:05;99561.41;;;23.48;41.08
51081;BME280;37130;55.670;37.596;2023-09-30T11:39:37;99523.75;;;23.28;40.95
51081;BME280;37130;55.670;37.596;2023-09-30T11:42:15;99566.81;;;23.48;40.45
51081;BME280;37130;55.670;37.596;2023-09-30T11:44:45;99561.19;;;23.41;40.75
51081;BME280;37130;55.670;37.596;2023-09-30T11:47:14;99540.13;;;23.09;41.65
51081;BME280;37130;55.670;37.596;2023-09-30T11:49:43;99562.22;;;23.22;41.31
51081;BME280;37130;55.670;37.596;2023-09-30T11:52:16;99473.34;;;22.65;41.30
51081;BME280;37130;55.670;37.596;2023-09-30T11:54:44;99477.66;;;22.76;41.17
51081;BME280;37130;55.670;37.596;2023-09-30T11:57:14;99534.56;;;23.10;41.33
51081;BME280;37130;55.670;37.596;2023-09-30T11:59:47;99531.41;;;22.97;41.57
51081;BME280;37130;55.670;37.596;2023-09-30T12:02:16;99516.16;;;22.78;41.42
51081;BME280;37130;55.670;37.596;2023-09-30T12:04:47;99549.03;;;22.91;42.02
51081;BME280;37130;55.670;37.596;2023-09-30T12:07:15;99543.31;;;22.94;41.50
51081;BME280;37130;55.670;37.596;2023-09-30T12:09:43;99542.19;;;22.97;41.32
51081;BME280;37130;55.670;37.596;2023-09-30T12:12:10;99536.81;;;22.97;41.81
51081;BME280;37130;55.670;37.596;2023-09-30T12:14:40;99540.63;;;22.94;41.88
51081;BME280;37130;55.670;37.596;2023-09-30T12:17:07;99533.00;;;22.90;41.91
51081;BME280;37130;55.670;37.596;2023-09-30T12:19:40;99434.97;;;22.26;41.97
51081;BME280;37130;55.670;37.596;2023-09-30T12:22:10;99443.88;;;22.36;41.80
51081;BME280;37130;55.670;37.596;2023-09-30T12:24:39;99527.69;;;22.80;42.08
51081;BME280;37130;55.670;37.596;2023-09-30T12:27:08;99516.94;;;22.70;42.12
51081;BME280;37130;55.670;37.596;2023-09-30T12:29:35;99518.34;;;22.74;41.67
51081;BME280;37130;55.670;37.596;2023-09-30T12:32:06;99477.75;;;22.48;41.90
51081;BME280;37130;55.670;37.596;2023-09-30T12:34:34;99530.13;;;22.73;41.55
51081;BME280;37130;55.670;37.596;2023-09-30T12:37:03;99520.16;;;22.74;41.97
51081;BME280;37130;55.670;37.596;2023-09-30T12:39:31;99514.09;;;22.72;41.88
51081;BME280;37130;55.670;37.596;2023-09-30T12:42:11;99515.53;;;22.84;41.36
51081;BME280;37130;55.670;37.596;2023-09-30T12:44:39;99497.56;;;22.75;41.74
51081;BME280;37130;55.670;37.596;2023-09-30T12:47:07;99521.81;;;22.85;41.48
51081;BME280;37130;55.670;37.596;2023-09-30T12:49:35;99521.56;;;22.78;41.92
51081;BME280;37130;55.670;37.596;2023-09-30T12:52:03;99459.03;;;22.37;41.67
51081;BME280;37130;55.670;37.596;2023-09-30T12:54:31;99504.50;;;22.60;42.09
51081;BME280;37130;55.670;37.596;2023-09-30T12:56:59;99497.16;;;22.52;42.37
51081;BME280;37130;55.670;37.596;2023-09-30T12:59:27;99436.75;;;22.07;42.45
51081;BME280;37130;55.670;37.596;2023-09-30T13:01:54;99432.38;;;22.06;42.40
51081;BME280;37130;55.670;37.596;2023-09-30T13:04:23;99498.22;;;22.41;42.44
51081;BME280;37130;55.670;37.596;2023-09-30T13:06:51;99493.97;;;22.39;42.31
51081;BME280;37130;55.670;37.596;2023-09-30T13:09:18;99496.28;;;22.34;42.59
51081;BME280;37130;55.670;37.596;2023-09-30T13:11:47;99495.84;;;22.38;42.36
51081;BME280;37130;55.670;37.596;2023-09-30T13:14:15;99487.44;;;22.41;42.88